sensor_id;sensor_type;location;lat;lon;timestamp;P1;durP1;ratioP1;P2;durP2;ratioP2
6027;SDS011;3042;43.194;27.646;2023-05-27T00:01:36;29.10;;;26.50;;
6027;SDS011;3042;43.194;27.646;2023-05-27T00:04:03;37.33;;;30.37;;
6027;SDS011;3042;43.194;27.646;2023-05-27T00:06:30;34.20;;;31.07;;
6027;SDS011;3042;43.194;27.646;2023-05-27T00:08:58;41.53;;;36.90;;
6027;SDS011;3042;43.194;27.646;2023-05-27T00:11:26;34.00;;;30.97;;
6027;SDS011;3042;43.194;27.646;2023-05-27T00:13:53;31.13;;;28.30;;
6027;SDS011;3042;43.194;27.646;2023-05-27T00:16:21;30.23;;;27.73;;
6027;SDS011;3042;43.194;27.646;2023-05-27T00:18:48;33.00;;;30.30;;
6027;SDS011;3042;43.194;27.646;2023-05-27T00:21:15;40.80;;;30.30;;
6027;SDS011;3042;43.194;27.646;2023-05-27T00:23:45;34.80;;;31.80;;
6027;SDS011;3042;43.194;27.646;2023-05-27T00:26:12;37.33;;;34.20;;
6027;SDS011;3042;43.194;27.646;2023-05-27T00:28:41;36.27;;;32.63;;
6027;SDS011;3042;43.194;27.646;2023-05-27T00:31:08;42.03;;;38.50;;
6027;SDS011;3042;43.194;27.646;2023-05-27T00:33:35;38.73;;;34.77;;
6027;SDS011;3042;43.194;27.646;2023-05-27T00:36:03;50.43;;;45.63;;
6027;SDS011;3042;43.194;27.646;2023-05-27T00:38:30;77.13;;;40.00;;
6027;SDS011;3042;43.194;27.646;2023-05-27T00:40:57;35.67;;;32.23;;
6027;SDS011;3042;43.194;27.646;2023-05-27T00:43:28;35.80;;;32.17;;
6027;SDS011;3042;43.194;27.646;2023-05-27T00:45:57;35.80;;;32.40;;
6027;SDS011;3042;43.194;27.646;2023-05-27T00:48:24;31.53;;;28.47;;
6027;SDS011;3042;43.194;27.646;2023-05-27T00:50:52;35.03;;;29.77;;
6027;SDS011;3042;43.194;27.646;2023-05-27T00:53:20;30.77;;;27.80;;
6027;SDS011;3042;43.194;27.646;2023-05-27T00:55:47;31.47;;;28.73;;
6027;SDS011;3042;43.194;27.646;2023-05-27T00:58:17;37.00;;;32.20;;
6027;SDS011;3042;43.194;27.646;2023-05-27T01:00:46;32.00;;;28.97;;
6027;SDS011;3042;43.194;27.646;2023-05-27T01:03:15;31.47;;;28.67;;
6027;SDS011;3042;43.194;27.646;2023-05-27T01:05:45;32.77;;;29.27;;
6027;SDS011;3042;43.194;27.646;2023-05-27T01:08:16;29.80;;;27.40;;
6027;SDS011;3042;43.194;27.646;2023-05-27T01:10:51;38.80;;;33.27;;
6027;SDS011;3042;43.194;27.646;2023-05-27T01:13:23;40.97;;;37.03;;
6027;SDS011;3042;43.194;27.646;2023-05-27T01:15:58;33.87;;;30.57;;
6027;SDS011;3042;43.194;27.646;2023-05-27T01:18:30;35.33;;;31.40;;
6027;SDS011;3042;43.194;27.646;2023-05-27T01:20:59;39.93;;;32.17;;
6027;SDS011;3042;43.194;27.646;2023-05-27T01:23:33;34.00;;;30.67;;
6027;SDS011;3042;43.194;27.646;2023-05-27T01:26:03;33.20;;;29.87;;
6027;SDS011;3042;43.194;27.646;2023-05-27T01:28:31;36.97;;;30.50;;
6027;SDS011;3042;43.194;27.646;2023-05-27T01:31:01;37.73;;;30.47;;
6027;SDS011;3042;43.194;27.646;2023-05-27T01:33:33;34.10;;;31.10;;
6027;SDS011;3042;43.194;27.646;2023-05-27T01:36:04;69.07;;;37.40;;
6027;SDS011;3042;43.194;27.646;2023-05-27T01:38:38;38.37;;;34.83;;
6027;SDS011;3042;43.194;27.646;2023-05-27T01:41:09;37.33;;;33.43;;
6027;SDS011;3042;43.194;27.646;2023-05-27T01:43:37;37.17;;;33.97;;
6027;SDS011;3042;43.194;27.646;2023-05-27T01:46:05;83.13;;;37.70;;
6027;SDS011;3042;43.194;27.646;2023-05-27T01:48:32;37.40;;;34.00;;
6027;SDS011;3042;43.194;27.646;2023-05-27T01:51:00;39.07;;;34.67;;
6027;SDS011;3042;43.194;27.646;2023-05-27T01:53:27;39.63;;;36.17;;
6027;SDS011;3042;43.194;27.646;2023-05-27T01:55:56;31.13;;;28.13;;
6027;SDS011;3042;43.194;27.646;2023-05-27T01:58:23;32.80;;;29.53;;
6027;SDS011;3042;43.194;27.646;2023-05-27T02:00:50;33.43;;;29.93;;
6027;SDS011;3042;43.194;27.646;2023-05-27T02:03:17;32.60;;;29.83;;
6027;SDS011;3042;43.194;27.646;2023-05-27T02:05:44;37.00;;;33.47;;
6027;SDS011;3042;43.194;27.646;2023-05-27T02:08:11;38.33;;;34.33;;
6027;SDS011;3042;43.194;27.646;2023-05-27T02:10:38;44.77;;;33.77;;
6027;SDS011;3042;43.194;27.646;2023-05-27T02:13:07;38.40;;;34.50;;
6027;SDS011;3042;43.194;27.646;2023-05-27T02:15:34;40.73;;;35.43;;
6027;SDS011;3042;43.194;27.646;2023-05-27T02:18:01;37.70;;;33.93;;
6027;SDS011;3042;43.194;27.646;2023-05-27T02:20:30;34.07;;;30.53;;
6027;SDS011;3042;43.194;27.646;2023-05-27T02:22:57;35.30;;;31.67;;
6027;SDS011;3042;43.194;27.646;2023-05-27T02:25:24;31.97;;;28.53;;
6027;SDS011;3042;43.194;27.646;2023-05-27T02:27:51;31.27;;;28.17;;
6027;SDS011;3042;43.194;27.646;2023-05-27T02:30:20;32.23;;;28.90;;
6027;SDS011;3042;43.194;27.646;2023-05-27T02:32:47;29.87;;;27.27;;
6027;SDS011;3042;43.194;27.646;2023-05-27T02:35:16;30.57;;;27.53;;
6027;SDS011;3042;43.194;27.646;2023-05-27T02:37:43;31.70;;;29.00;;
6027;SDS011;3042;43.194;27.646;2023-05-27T02:40:10;33.80;;;31.10;;
6027;SDS011;3042;43.194;27.646;2023-05-27T02:42:38;40.10;;;36.60;;
6027;SDS011;3042;43.194;27.646;2023-05-27T02:45:05;38.70;;;35.40;;
6027;SDS011;3042;43.194;27.646;2023-05-27T02:47:35;30.30;;;27.60;;
6027;SDS011;3042;43.194;27.646;2023-05-27T02:50:02;30.53;;;27.93;;
6027;SDS011;3042;43.194;27.646;2023-05-27T02:52:29;29.47;;;26.90;;
6027;SDS011;3042;43.194;27.646;2023-05-27T02:54:57;29.97;;;26.37;;
6027;SDS011;3042;43.194;27.646;2023-05-27T02:57:24;28.10;;;25.87;;
6027;SDS011;3042;43.194;27.646;2023-05-27T02:59:51;27.87;;;25.57;;
6027;SDS011;3042;43.194;27.646;2023-05-27T03:02:18;26.93;;;24.47;;
6027;SDS011;3042;43.194;27.646;2023-05-27T03:04:47;28.47;;;25.57;;
6027;SDS011;3042;43.194;27.646;2023-05-27T03:07:14;28.80;;;25.73;;
6027;SDS011;3042;43.194;27.646;2023-05-27T03:09:41;27.00;;;24.90;;
6027;SDS011;3042;43.194;27.646;2023-05-27T03:12:08;26.20;;;24.30;;
6027;SDS011;3042;43.194;27.646;2023-05-27T03:14:36;27.13;;;24.60;;
6027;SDS011;3042;43.194;27.646;2023-05-27T03:17:03;24.73;;;22.73;;
6027;SDS011;3042;43.194;27.646;2023-05-27T03:19:30;25.23;;;23.00;;
6027;SDS011;3042;43.194;27.646;2023-05-27T03:21:59;27.13;;;24.60;;
6027;SDS011;3042;43.194;27.646;2023-05-27T03:24:26;24.27;;;22.33;;
6027;SDS011;3042;43.194;27.646;2023-05-27T03:26:53;25.07;;;22.60;;
6027;SDS011;3042;43.194;27.646;2023-05-27T03:29:20;30.87;;;24.10;;
6027;SDS011;3042;43.194;27.646;2023-05-27T03:31:48;24.13;;;22.33;;
6027;SDS011;3042;43.194;27.646;2023-05-27T03:34:15;26.20;;;24.30;;
6027;SDS011;3042;43.194;27.646;2023-05-27T03:36:42;26.73;;;24.40;;
6027;SDS011;3042;43.194;27.646;2023-05-27T03:39:12;26.57;;;24.00;;
6027;SDS011;3042;43.194;27.646;2023-05-27T03:41:39;27.67;;;25.67;;
6027;SDS011;3042;43.194;27.646;2023-05-27T03:44:06;29.83;;;26.80;;
6027;SDS011;3042;43.194;27.646;2023-05-27T03:46:34;29.90;;;27.40;;
6027;SDS011;3042;43.194;27.646;2023-05-27T03:49:01;32.37;;;29.33;;
6027;SDS011;3042;43.194;27.646;2023-05-27T03:51:28;30.87;;;27.90;;
6027;SDS011;3042;43.194;27.646;2023-05-27T03:53:56;28.50;;;25.80;;
6027;SDS011;3042;43.194;27.646;2023-05-27T03:56:25;26.60;;;24.50;;
6027;SDS011;3042;43.194;27.646;2023-05-27T03:58:52;24.17;;;22.13;;
6027;SDS011;3042;43.194;27.646;2023-05-27T04:01:19;24.30;;;22.17;;
6027;SDS011;3042;43.194;27.646;2023-05-27T04:03:46;24.30;;;22.43;;
6027;SDS011;3042;43.194;27.646;2023-05-27T04:06:14;30.53;;;27.17;;
6027;SDS011;3042;43.194;27.646;2023-05-27T04:08:41;30.77;;;28.47;;
6027;SDS011;3042;43.194;27.646;2023-05-27T04:11:10;23.30;;;21.57;;
6027;SDS011;3042;43.194;27.646;2023-05-27T04:13:39;28.40;;;26.07;;
6027;SDS011;3042;43.194;27.646;2023-05-27T04:16:06;22.30;;;20.87;;
6027;SDS011;3042;43.194;27.646;2023-05-27T04:18:35;21.53;;;19.90;;
6027;SDS011;3042;43.194;27.646;2023-05-27T04:21:02;24.58;;;22.48;;
6027;SDS011;3042;43.194;27.646;2023-05-27T04:23:30;24.93;;;23.03;;
6027;SDS011;3042;43.194;27.646;2023-05-27T04:25:57;25.50;;;22.97;;
6027;SDS011;3042;43.194;27.646;2023-05-27T04:28:25;24.03;;;22.07;;
6027;SDS011;3042;43.194;27.646;2023-05-27T04:31:01;35.93;;;23.60;;
6027;SDS011;3042;43.194;27.646;2023-05-27T04:33:29;64.47;;;28.60;;
6027;SDS011;3042;43.194;27.646;2023-05-27T04:35:56;24.60;;;22.50;;
6027;SDS011;3042;43.194;27.646;2023-05-27T04:38:23;28.00;;;25.03;;
6027;SDS011;3042;43.194;27.646;2023-05-27T04:40:50;30.03;;;26.97;;
6027;SDS011;3042;43.194;27.646;2023-05-27T04:43:18;24.80;;;22.90;;
6027;SDS011;3042;43.194;27.646;2023-05-27T04:45:45;25.20;;;23.30;;
6027;SDS011;3042;43.194;27.646;2023-05-27T04:48:14;24.80;;;22.90;;
6027;SDS011;3042;43.194;27.646;2023-05-27T04:50:42;27.53;;;23.83;;
6027;SDS011;3042;43.194;27.646;2023-05-27T04:53:09;28.37;;;25.60;;
6027;SDS011;3042;43.194;27.646;2023-05-27T04:55:36;35.53;;;23.90;;
6027;SDS011;3042;43.194;27.646;2023-05-27T04:58:04;40.00;;;24.43;;
6027;SDS011;3042;43.194;27.646;2023-05-27T05:00:31;31.40;;;24.60;;
6027;SDS011;3042;43.194;27.646;2023-05-27T05:03:16;32.20;;;29.23;;
6027;SDS011;3042;43.194;27.646;2023-05-27T05:05:47;33.47;;;30.27;;
6027;SDS011;3042;43.194;27.646;2023-05-27T05:08:15;28.80;;;26.30;;
6027;SDS011;3042;43.194;27.646;2023-05-27T05:10:42;27.40;;;25.03;;
6027;SDS011;3042;43.194;27.646;2023-05-27T05:13:10;30.90;;;28.03;;
6027;SDS011;3042;43.194;27.646;2023-05-27T05:15:37;29.07;;;24.87;;
6027;SDS011;3042;43.194;27.646;2023-05-27T05:18:04;26.33;;;23.83;;
6027;SDS011;3042;43.194;27.646;2023-05-27T05:20:33;28.17;;;25.23;;
6027;SDS011;3042;43.194;27.646;2023-05-27T05:23:00;29.30;;;26.60;;
6027;SDS011;3042;43.194;27.646;2023-05-27T05:25:27;37.07;;;27.50;;
6027;SDS011;3042;43.194;27.646;2023-05-27T05:27:55;32.40;;;28.97;;
6027;SDS011;3042;43.194;27.646;2023-05-27T05:30:22;31.08;;;27.80;;
6027;SDS011;3042;43.194;27.646;2023-05-27T05:32:51;30.47;;;27.57;;
6027;SDS011;3042;43.194;27.646;2023-05-27T05:35:18;34.60;;;30.20;;
6027;SDS011;3042;43.194;27.646;2023-05-27T05:37:47;33.03;;;29.70;;
6027;SDS011;3042;43.194;27.646;2023-05-27T05:40:15;62.60;;;34.10;;
6027;SDS011;3042;43.194;27.646;2023-05-27T05:42:42;41.17;;;36.80;;
6027;SDS011;3042;43.194;27.646;2023-05-27T05:45:10;28.57;;;25.83;;
6027;SDS011;3042;43.194;27.646;2023-05-27T05:47:37;33.03;;;29.67;;
6027;SDS011;3042;43.194;27.646;2023-05-27T05:50:05;33.17;;;30.10;;
6027;SDS011;3042;43.194;27.646;2023-05-27T05:52:33;33.13;;;30.33;;
6027;SDS011;3042;43.194;27.646;2023-05-27T05:55:01;31.77;;;29.00;;
6027;SDS011;3042;43.194;27.646;2023-05-27T05:57:29;33.40;;;29.80;;
6027;SDS011;3042;43.194;27.646;2023-05-27T05:59:57;38.23;;;30.20;;
6027;SDS011;3042;43.194;27.646;2023-05-27T06:02:24;30.60;;;27.67;;
6027;SDS011;3042;43.194;27.646;2023-05-27T06:04:51;45.17;;;33.07;;
6027;SDS011;3042;43.194;27.646;2023-05-27T06:07:18;33.77;;;30.70;;
6027;SDS011;3042;43.194;27.646;2023-05-27T06:09:45;195.80;;;44.03;;
6027;SDS011;3042;43.194;27.646;2023-05-27T06:12:14;42.97;;;27.13;;
6027;SDS011;3042;43.194;27.646;2023-05-27T06:14:41;84.10;;;38.90;;
6027;SDS011;3042;43.194;27.646;2023-05-27T06:17:08;197.47;;;46.70;;
6027;SDS011;3042;43.194;27.646;2023-05-27T06:19:35;44.00;;;40.50;;
6027;SDS011;3042;43.194;27.646;2023-05-27T06:22:02;31.63;;;28.53;;
6027;SDS011;3042;43.194;27.646;2023-05-27T06:24:30;43.90;;;32.90;;
6027;SDS011;3042;43.194;27.646;2023-05-27T06:26:57;35.00;;;31.17;;
6027;SDS011;3042;43.194;27.646;2023-05-27T06:29:27;50.80;;;37.00;;
6027;SDS011;3042;43.194;27.646;2023-05-27T06:31:54;43.40;;;38.80;;
6027;SDS011;3042;43.194;27.646;2023-05-27T06:34:21;43.10;;;34.27;;
6027;SDS011;3042;43.194;27.646;2023-05-27T06:36:48;41.40;;;33.03;;
6027;SDS011;3042;43.194;27.646;2023-05-27T06:39:16;38.50;;;31.93;;
6027;SDS011;3042;43.194;27.646;2023-05-27T06:41:43;40.13;;;32.80;;
6027;SDS011;3042;43.194;27.646;2023-05-27T06:44:10;33.20;;;29.47;;
6027;SDS011;3042;43.194;27.646;2023-05-27T06:46:39;39.53;;;30.53;;
6027;SDS011;3042;43.194;27.646;2023-05-27T06:49:06;45.43;;;31.70;;
6027;SDS011;3042;43.194;27.646;2023-05-27T06:51:33;39.67;;;35.70;;
6027;SDS011;3042;43.194;27.646;2023-05-27T06:54:01;42.47;;;35.90;;
6027;SDS011;3042;43.194;27.646;2023-05-27T06:56:28;42.70;;;31.33;;
6027;SDS011;3042;43.194;27.646;2023-05-27T06:58:55;55.07;;;30.00;;
6027;SDS011;3042;43.194;27.646;2023-05-27T07:01:23;36.93;;;31.50;;
6027;SDS011;3042;43.194;27.646;2023-05-27T07:04:01;50.53;;;31.77;;
6027;SDS011;3042;43.194;27.646;2023-05-27T07:06:29;38.80;;;32.10;;
6027;SDS011;3042;43.194;27.646;2023-05-27T07:08:56;38.77;;;31.67;;
6027;SDS011;3042;43.194;27.646;2023-05-27T07:11:23;49.93;;;31.43;;
6027;SDS011;3042;43.194;27.646;2023-05-27T07:13:51;33.20;;;28.37;;
6027;SDS011;3042;43.194;27.646;2023-05-27T07:16:18;34.17;;;30.77;;
6027;SDS011;3042;43.194;27.646;2023-05-27T07:18:46;29.70;;;27.00;;
6027;SDS011;3042;43.194;27.646;2023-05-27T07:21:14;43.77;;;31.50;;
6027;SDS011;3042;43.194;27.646;2023-05-27T07:23:41;36.90;;;32.17;;
6027;SDS011;3042;43.194;27.646;2023-05-27T07:26:09;31.33;;;28.57;;
6027;SDS011;3042;43.194;27.646;2023-05-27T07:28:36;33.27;;;29.97;;
6027;SDS011;3042;43.194;27.646;2023-05-27T07:31:03;31.30;;;28.40;;
6027;SDS011;3042;43.194;27.646;2023-05-27T07:33:30;33.97;;;31.07;;
6027;SDS011;3042;43.194;27.646;2023-05-27T07:35:57;34.45;;;31.25;;
6027;SDS011;3042;43.194;27.646;2023-05-27T07:38:26;102.70;;;36.20;;
6027;SDS011;3042;43.194;27.646;2023-05-27T07:40:53;32.07;;;28.97;;
6027;SDS011;3042;43.194;27.646;2023-05-27T07:43:20;32.90;;;29.70;;
6027;SDS011;3042;43.194;27.646;2023-05-27T07:45:47;30.50;;;27.70;;
6027;SDS011;3042;43.194;27.646;2023-05-27T07:48:15;31.60;;;28.60;;
6027;SDS011;3042;43.194;27.646;2023-05-27T07:50:42;31.77;;;28.37;;
6027;SDS011;3042;43.194;27.646;2023-05-27T07:53:10;28.87;;;26.30;;
6027;SDS011;3042;43.194;27.646;2023-05-27T07:55:38;33.27;;;30.17;;
6027;SDS011;3042;43.194;27.646;2023-05-27T07:58:05;31.53;;;28.53;;
6027;SDS011;3042;43.194;27.646;2023-05-27T08:00:32;31.43;;;28.10;;
6027;SDS011;3042;43.194;27.646;2023-05-27T08:03:00;32.97;;;29.60;;
6027;SDS011;3042;43.194;27.646;2023-05-27T08:05:27;30.27;;;27.47;;
6027;SDS011;3042;43.194;27.646;2023-05-27T08:07:54;29.80;;;27.20;;
6027;SDS011;3042;43.194;27.646;2023-05-27T08:10:21;28.30;;;25.23;;
6027;SDS011;3042;43.194;27.646;2023-05-27T08:12:50;24.90;;;23.00;;
6027;SDS011;3042;43.194;27.646;2023-05-27T08:15:17;48.70;;;24.10;;
6027;SDS011;3042;43.194;27.646;2023-05-27T08:17:44;26.67;;;24.20;;
6027;SDS011;3042;43.194;27.646;2023-05-27T08:20:11;43.73;;;29.27;;
6027;SDS011;3042;43.194;27.646;2023-05-27T08:22:38;98.70;;;35.20;;
6027;SDS011;3042;43.194;27.646;2023-05-27T08:25:06;61.40;;;32.47;;
6027;SDS011;3042;43.194;27.646;2023-05-27T08:27:43;47.70;;;32.73;;
6027;SDS011;3042;43.194;27.646;2023-05-27T08:30:14;38.40;;;31.40;;
6027;SDS011;3042;43.194;27.646;2023-05-27T08:32:42;65.30;;;30.67;;
6027;SDS011;3042;43.194;27.646;2023-05-27T08:35:09;57.23;;;29.33;;
6027;SDS011;3042;43.194;27.646;2023-05-27T08:37:37;25.10;;;23.30;;
6027;SDS011;3042;43.194;27.646;2023-05-27T08:40:06;30.07;;;26.50;;
6027;SDS011;3042;43.194;27.646;2023-05-27T08:42:36;29.03;;;26.10;;
6027;SDS011;3042;43.194;27.646;2023-05-27T08:45:03;50.03;;;29.40;;
6027;SDS011;3042;43.194;27.646;2023-05-27T08:47:33;35.93;;;27.90;;
6027;SDS011;3042;43.194;27.646;2023-05-27T08:50:00;27.30;;;24.83;;
6027;SDS011;3042;43.194;27.646;2023-05-27T08:52:28;30.90;;;24.30;;
6027;SDS011;3042;43.194;27.646;2023-05-27T08:54:56;26.27;;;24.07;;
6027;SDS011;3042;43.194;27.646;2023-05-27T08:57:25;39.63;;;24.70;;
6027;SDS011;3042;43.194;27.646;2023-05-27T08:59:55;26.50;;;24.40;;
6027;SDS011;3042;43.194;27.646;2023-05-27T09:02:22;24.67;;;22.87;;
6027;SDS011;3042;43.194;27.646;2023-05-27T09:04:52;27.37;;;23.37;;
6027;SDS011;3042;43.194;27.646;2023-05-27T09:07:19;29.33;;;26.67;;
6027;SDS011;3042;43.194;27.646;2023-05-27T09:09:54;24.50;;;22.90;;
6027;SDS011;3042;43.194;27.646;2023-05-27T09:12:22;22.90;;;21.13;;
6027;SDS011;3042;43.194;27.646;2023-05-27T09:14:50;24.63;;;22.73;;
6027;SDS011;3042;43.194;27.646;2023-05-27T09:17:17;26.60;;;23.90;;
6027;SDS011;3042;43.194;27.646;2023-05-27T09:19:44;27.53;;;24.83;;
6027;SDS011;3042;43.194;27.646;2023-05-27T09:22:20;24.50;;;22.67;;
6027;SDS011;3042;43.194;27.646;2023-05-27T09:24:48;26.47;;;24.20;;
6027;SDS011;3042;43.194;27.646;2023-05-27T09:27:16;26.57;;;24.57;;
6027;SDS011;3042;43.194;27.646;2023-05-27T09:29:44;26.73;;;24.53;;
6027;SDS011;3042;43.194;27.646;2023-05-27T09:32:11;24.23;;;22.60;;
6027;SDS011;3042;43.194;27.646;2023-05-27T09:34:38;25.70;;;23.90;;
6027;SDS011;3042;43.194;27.646;2023-05-27T09:37:12;25.00;;;23.13;;
6027;SDS011;3042;43.194;27.646;2023-05-27T09:39:42;34.07;;;30.80;;
6027;SDS011;3042;43.194;27.646;2023-05-27T09:42:09;23.70;;;21.73;;
6027;SDS011;3042;43.194;27.646;2023-05-27T09:44:36;26.33;;;23.93;;
6027;SDS011;3042;43.194;27.646;2023-05-27T09:47:05;25.33;;;23.20;;
6027;SDS011;3042;43.194;27.646;2023-05-27T09:49:34;23.87;;;22.10;;
6027;SDS011;3042;43.194;27.646;2023-05-27T09:52:06;24.63;;;22.40;;
6027;SDS011;3042;43.194;27.646;2023-05-27T09:54:38;25.03;;;22.90;;
6027;SDS011;3042;43.194;27.646;2023-05-27T09:57:07;24.50;;;22.50;;
6027;SDS011;3042;43.194;27.646;2023-05-27T09:59:37;31.03;;;25.03;;
6027;SDS011;3042;43.194;27.646;2023-05-27T10:02:08;20.07;;;18.87;;
6027;SDS011;3042;43.194;27.646;2023-05-27T10:04:37;22.47;;;20.50;;
6027;SDS011;3042;43.194;27.646;2023-05-27T10:07:05;24.80;;;22.73;;
6027;SDS011;3042;43.194;27.646;2023-05-27T10:09:32;56.85;;;29.25;;
6027;SDS011;3042;43.194;27.646;2023-05-27T10:12:00;32.13;;;27.53;;
6027;SDS011;3042;43.194;27.646;2023-05-27T10:14:29;28.13;;;25.63;;
6027;SDS011;3042;43.194;27.646;2023-05-27T10:16:56;27.40;;;25.20;;
6027;SDS011;3042;43.194;27.646;2023-05-27T10:19:23;30.30;;;26.50;;
6027;SDS011;3042;43.194;27.646;2023-05-27T10:21:50;34.80;;;31.33;;
6027;SDS011;3042;43.194;27.646;2023-05-27T10:24:19;52.13;;;30.30;;
6027;SDS011;3042;43.194;27.646;2023-05-27T10:26:59;25.20;;;22.80;;
6027;SDS011;3042;43.194;27.646;2023-05-27T10:29:36;26.07;;;23.60;;
6027;SDS011;3042;43.194;27.646;2023-05-27T10:32:04;24.13;;;22.33;;
6027;SDS011;3042;43.194;27.646;2023-05-27T10:34:34;24.83;;;22.10;;
6027;SDS011;3042;43.194;27.646;2023-05-27T10:37:02;42.90;;;38.80;;
6027;SDS011;3042;43.194;27.646;2023-05-27T10:39:29;51.27;;;45.93;;
6027;SDS011;3042;43.194;27.646;2023-05-27T10:41:57;111.57;;;100.77;;
6027;SDS011;3042;43.194;27.646;2023-05-27T10:44:27;100.80;;;89.90;;
6027;SDS011;3042;43.194;27.646;2023-05-27T10:47:00;42.47;;;37.97;;
6027;SDS011;3042;43.194;27.646;2023-05-27T10:49:32;59.63;;;53.43;;
6027;SDS011;3042;43.194;27.646;2023-05-27T10:52:06;72.37;;;65.27;;
6027;SDS011;3042;43.194;27.646;2023-05-27T10:54:36;72.17;;;64.60;;
6027;SDS011;3042;43.194;27.646;2023-05-27T10:57:04;82.00;;;73.97;;
6027;SDS011;3042;43.194;27.646;2023-05-27T10:59:36;139.03;;;102.40;;
6027;SDS011;3042;43.194;27.646;2023-05-27T11:02:08;88.83;;;67.00;;
6027;SDS011;3042;43.194;27.646;2023-05-27T11:04:35;66.77;;;56.17;;
6027;SDS011;3042;43.194;27.646;2023-05-27T11:07:03;59.10;;;53.07;;
6027;SDS011;3042;43.194;27.646;2023-05-27T11:09:31;46.67;;;42.30;;
6027;SDS011;3042;43.194;27.646;2023-05-27T11:12:12;34.60;;;31.13;;
6027;SDS011;3042;43.194;27.646;2023-05-27T11:14:41;39.33;;;35.83;;
6027;SDS011;3042;43.194;27.646;2023-05-27T11:17:11;40.43;;;36.43;;
6027;SDS011;3042;43.194;27.646;2023-05-27T11:19:38;43.23;;;39.20;;
6027;SDS011;3042;43.194;27.646;2023-05-27T11:22:06;39.23;;;35.83;;
6027;SDS011;3042;43.194;27.646;2023-05-27T11:24:34;51.30;;;46.40;;
6027;SDS011;3042;43.194;27.646;2023-05-27T11:27:07;55.07;;;47.37;;
6027;SDS011;3042;43.194;27.646;2023-05-27T11:29:36;56.07;;;51.13;;
6027;SDS011;3042;43.194;27.646;2023-05-27T11:32:03;56.83;;;51.43;;
6027;SDS011;3042;43.194;27.646;2023-05-27T11:34:34;47.07;;;42.60;;
6027;SDS011;3042;43.194;27.646;2023-05-27T11:37:03;45.03;;;41.13;;
6027;SDS011;3042;43.194;27.646;2023-05-27T11:39:31;40.87;;;37.17;;
6027;SDS011;3042;43.194;27.646;2023-05-27T11:41:58;42.43;;;38.80;;
6027;SDS011;3042;43.194;27.646;2023-05-27T11:44:25;41.40;;;37.77;;
6027;SDS011;3042;43.194;27.646;2023-05-27T11:46:57;33.70;;;30.30;;
6027;SDS011;3042;43.194;27.646;2023-05-27T11:49:27;29.00;;;26.30;;
6027;SDS011;3042;43.194;27.646;2023-05-27T11:51:56;30.13;;;27.50;;
6027;SDS011;3042;43.194;27.646;2023-05-27T11:54:24;25.37;;;23.07;;
6027;SDS011;3042;43.194;27.646;2023-05-27T11:56:53;31.80;;;25.10;;
6027;SDS011;3042;43.194;27.646;2023-05-27T11:59:21;29.37;;;26.30;;
6027;SDS011;3042;43.194;27.646;2023-05-27T12:01:49;85.07;;;55.83;;
6027;SDS011;3042;43.194;27.646;2023-05-27T12:04:19;37.10;;;33.13;;
6027;SDS011;3042;43.194;27.646;2023-05-27T12:06:46;37.40;;;33.93;;
6027;SDS011;3042;43.194;27.646;2023-05-27T12:09:14;37.30;;;33.30;;
6027;SDS011;3042;43.194;27.646;2023-05-27T12:11:42;44.33;;;30.93;;
6027;SDS011;3042;43.194;27.646;2023-05-27T12:14:09;39.07;;;34.53;;
6027;SDS011;3042;43.194;27.646;2023-05-27T12:16:36;32.67;;;29.57;;
6027;SDS011;3042;43.194;27.646;2023-05-27T12:19:03;39.73;;;34.83;;
6027;SDS011;3042;43.194;27.646;2023-05-27T12:21:30;37.80;;;34.13;;
6027;SDS011;3042;43.194;27.646;2023-05-27T12:23:57;37.87;;;34.10;;
6027;SDS011;3042;43.194;27.646;2023-05-27T12:26:26;41.80;;;37.57;;
6027;SDS011;3042;43.194;27.646;2023-05-27T12:28:53;31.73;;;28.97;;
6027;SDS011;3042;43.194;27.646;2023-05-27T12:31:21;48.33;;;43.33;;
6027;SDS011;3042;43.194;27.646;2023-05-27T12:33:48;44.60;;;40.13;;
6027;SDS011;3042;43.194;27.646;2023-05-27T12:36:16;45.73;;;40.90;;
6027;SDS011;3042;43.194;27.646;2023-05-27T12:38:44;49.10;;;44.20;;
6027;SDS011;3042;43.194;27.646;2023-05-27T12:41:11;43.43;;;38.83;;
6027;SDS011;3042;43.194;27.646;2023-05-27T12:43:40;41.63;;;37.37;;
6027;SDS011;3042;43.194;27.646;2023-05-27T12:46:07;44.73;;;39.83;;
6027;SDS011;3042;43.194;27.646;2023-05-27T12:48:34;47.97;;;43.23;;
6027;SDS011;3042;43.194;27.646;2023-05-27T12:51:01;42.63;;;38.40;;
6027;SDS011;3042;43.194;27.646;2023-05-27T12:53:28;37.37;;;33.53;;
6027;SDS011;3042;43.194;27.646;2023-05-27T12:55:55;43.50;;;39.27;;
6027;SDS011;3042;43.194;27.646;2023-05-27T12:58:22;43.47;;;34.60;;
6027;SDS011;3042;43.194;27.646;2023-05-27T13:00:52;44.43;;;40.20;;
6027;SDS011;3042;43.194;27.646;2023-05-27T13:03:19;40.03;;;35.97;;
6027;SDS011;3042;43.194;27.646;2023-05-27T13:05:46;43.43;;;39.03;;
6027;SDS011;3042;43.194;27.646;2023-05-27T13:08:13;46.07;;;41.17;;
6027;SDS011;3042;43.194;27.646;2023-05-27T13:10:40;41.80;;;37.77;;
6027;SDS011;3042;43.194;27.646;2023-05-27T13:13:07;52.67;;;41.97;;
6027;SDS011;3042;43.194;27.646;2023-05-27T13:15:34;37.13;;;33.43;;
6027;SDS011;3042;43.194;27.646;2023-05-27T13:18:03;197.67;;;126.67;;
6027;SDS011;3042;43.194;27.646;2023-05-27T13:20:32;80.77;;;59.40;;
6027;SDS011;3042;43.194;27.646;2023-05-27T13:22:59;48.13;;;43.07;;
6027;SDS011;3042;43.194;27.646;2023-05-27T13:25:26;35.43;;;32.13;;
6027;SDS011;3042;43.194;27.646;2023-05-27T13:27:54;85.37;;;62.97;;
6027;SDS011;3042;43.194;27.646;2023-05-27T13:30:22;47.90;;;42.80;;
6027;SDS011;3042;43.194;27.646;2023-05-27T13:32:50;40.73;;;36.67;;
6027;SDS011;3042;43.194;27.646;2023-05-27T13:35:19;42.07;;;38.03;;
6027;SDS011;3042;43.194;27.646;2023-05-27T13:37:46;39.40;;;35.83;;
6027;SDS011;3042;43.194;27.646;2023-05-27T13:40:13;41.20;;;37.20;;
6027;SDS011;3042;43.194;27.646;2023-05-27T13:42:40;48.60;;;44.10;;
6027;SDS011;3042;43.194;27.646;2023-05-27T13:45:08;48.77;;;44.17;;
6027;SDS011;3042;43.194;27.646;2023-05-27T13:47:35;43.50;;;39.40;;
6027;SDS011;3042;43.194;27.646;2023-05-27T13:50:06;42.77;;;38.50;;
6027;SDS011;3042;43.194;27.646;2023-05-27T13:52:34;36.33;;;32.53;;
6027;SDS011;3042;43.194;27.646;2023-05-27T13:55:02;29.73;;;27.43;;
6027;SDS011;3042;43.194;27.646;2023-05-27T13:57:29;36.67;;;32.77;;
6027;SDS011;3042;43.194;27.646;2023-05-27T13:59:56;30.83;;;28.07;;
6027;SDS011;3042;43.194;27.646;2023-05-27T14:02:24;36.53;;;33.23;;
6027;SDS011;3042;43.194;27.646;2023-05-27T14:04:51;40.10;;;36.07;;
6027;SDS011;3042;43.194;27.646;2023-05-27T14:07:18;39.40;;;35.50;;
6027;SDS011;3042;43.194;27.646;2023-05-27T14:09:47;41.27;;;37.07;;
6027;SDS011;3042;43.194;27.646;2023-05-27T14:12:14;39.97;;;36.23;;
6027;SDS011;3042;43.194;27.646;2023-05-27T14:14:41;41.00;;;33.63;;
6027;SDS011;3042;43.194;27.646;2023-05-27T14:17:08;38.33;;;34.77;;
6027;SDS011;3042;43.194;27.646;2023-05-27T14:19:35;34.93;;;31.50;;
6027;SDS011;3042;43.194;27.646;2023-05-27T14:22:03;42.60;;;38.63;;
6027;SDS011;3042;43.194;27.646;2023-05-27T14:24:30;44.67;;;38.30;;
6027;SDS011;3042;43.194;27.646;2023-05-27T14:26:59;42.13;;;37.93;;
6027;SDS011;3042;43.194;27.646;2023-05-27T14:29:26;42.27;;;36.80;;
6027;SDS011;3042;43.194;27.646;2023-05-27T14:31:53;43.17;;;38.47;;
6027;SDS011;3042;43.194;27.646;2023-05-27T14:34:20;47.70;;;42.37;;
6027;SDS011;3042;43.194;27.646;2023-05-27T14:36:47;45.30;;;40.60;;
6027;SDS011;3042;43.194;27.646;2023-05-27T14:39:14;52.40;;;47.33;;